Temp: 8.6°C   Baro: 995.1mb
  Wind: 8.1mph   Dir: SSW (204°)
  Rain: 0.0mm (0.0mm/hr)
  Solar: 0W/m2  Hum: 88%
 
Bath Spa Weather Station Historical Data
Daily Summary for September 16, 2020 Units:  Metric    English   Both
Daily Weekly Monthly Yearly Custom
  High: Low: Average:
Temperature: 27.4 °C 14.2 °C 19.2 °C
Dew Point: 18.2 °C 13.7 °C 15.7 °C
Humidity: 97% 53.2% 80%
Wind Speed: 14km/h 0km/h 5.3km/h
Wind Gust: 35.4km/h - -
Wind- - SSE
Pressure: 1028.3 hPa 1020.9 hPa -
Precipitation: 0 mm    
Historical Graphs
 
 
Tabular Data for September 16, 2020
Time Temperature Dew Point Pressure Wind Wind Speed Wind Gust Humidity Rainfall Rate (Hourly) solar
00:04 15.4 °C 14.4 °C 1020.9 hPa WNW 2.9 km/h 8 km/h 91% 0 mm 0 W/m2
00:09 15.3 °C 14.3 °C 1020.9 hPa WNW 2.1 km/h 4.8 km/h 91% 0 mm 0 W/m2
00:14 15.3 °C 14.3 °C 1020.9 hPa WNW 1.1 km/h 3.2 km/h 91% 0 mm 0 W/m2
00:19 15.3 °C 14.4 °C 1020.9 hPa WNW 1.8 km/h 4.8 km/h 91.6% 0 mm 0 W/m2
00:24 15.3 °C 14.5 °C 1020.9 hPa WNW 2.7 km/h 6.4 km/h 92% 0 mm 0 W/m2
00:29 15.3 °C 14.5 °C 1020.9 hPa WNW 1.9 km/h 6.4 km/h 92% 0 mm 0 W/m2
00:34 15.3 °C 14.5 °C 1020.9 hPa WNW 1.8 km/h 6.4 km/h 92% 0 mm 0 W/m2
00:39 15.3 °C 14.5 °C 1020.9 hPa WNW 3.2 km/h 4.8 km/h 92% 0 mm 0 W/m2
00:44 15.2 °C 14.6 °C 1020.9 hPa WNW 3.2 km/h 4.8 km/h 92.8% 0 mm 0 W/m2
00:49 15.2 °C 14.6 °C 1020.9 hPa WNW 3.5 km/h 6.4 km/h 93% 0 mm 0 W/m2
00:54 15.2 °C 14.6 °C 1020.9 hPa WNW 4 km/h 6.4 km/h 93% 0 mm 0 W/m2
00:59 15.2 °C 14.6 °C 1020.9 hPa WNW 3.4 km/h 6.4 km/h 93% 0 mm 0 W/m2
01:04 15.1 °C 14.5 °C 1020.9 hPa WNW 2.1 km/h 4.8 km/h 93% 0 mm 0 W/m2
01:09 15.1 °C 14.5 °C 1020.9 hPa WNW 4 km/h 6.4 km/h 93% 0 mm 0 W/m2
01:14 15.1 °C 14.5 °C 1020.9 hPa West 3.5 km/h 6.4 km/h 93% 0 mm 0 W/m2
01:19 15.1 °C 14.6 °C 1020.9 hPa West 1.4 km/h 6.4 km/h 93.8% 0 mm 0 W/m2
01:24 15.2 °C 14.7 °C 1020.9 hPa West 1.9 km/h 8 km/h 94% 0 mm 0 W/m2
01:29 15.1 °C 14.6 °C 1020.9 hPa West 4.5 km/h 8 km/h 94% 0 mm 0 W/m2
01:34 15.1 °C 14.6 °C 1020.9 hPa West 3.9 km/h 9.7 km/h 94% 0 mm 0 W/m2
01:39 15.1 °C 14.6 °C 1020.9 hPa West 4 km/h 11.3 km/h 94% 0 mm 0 W/m2
01:44 15.1 °C 14.6 °C 1020.9 hPa West 3.2 km/h 11.3 km/h 94% 0 mm 0 W/m2
01:49 15 °C 14.5 °C 1020.9 hPa West 6.1 km/h 9.7 km/h 94% 0 mm 0 W/m2
01:54 14.9 °C 14.4 °C 1020.9 hPa WNW 3.5 km/h 9.7 km/h 94% 0 mm 0 W/m2
01:59 14.9 °C 14.4 °C 1021.2 hPa West 4 km/h 9.7 km/h 94% 0 mm 0 W/m2
02:04 14.9 °C 14.4 °C 1021.2 hPa WNW 3.2 km/h 9.7 km/h 94% 0 mm 0 W/m2
02:09 14.9 °C 14.4 °C 1021.2 hPa WNW 3.7 km/h 8 km/h 94% 0 mm 0 W/m2
02:14 14.9 °C 14.4 °C 1021.2 hPa West 1 km/h 6.4 km/h 94% 0 mm 0 W/m2
02:19 14.9 °C 14.4 °C 1021.2 hPa West 1.9 km/h 6.4 km/h 94% 0 mm 0 W/m2
02:24 14.9 °C 14.4 °C 1021.2 hPa West 0.3 km/h 3.2 km/h 94% 0 mm 0 W/m2
02:29 15 °C 14.6 °C 1021.2 hPa West 1.6 km/h 4.8 km/h 94.5% 0 mm 0 W/m2
02:34 15.1 °C 14.7 °C 1021.2 hPa West 1.4 km/h 6.4 km/h 95% 0 mm 0 W/m2
02:39 15 °C 14.7 °C 1021.2 hPa West 2.7 km/h 6.4 km/h 95% 0 mm 0 W/m2
02:44 15 °C 14.7 °C 1021.2 hPa West 0.6 km/h 3.2 km/h 95% 0 mm 0 W/m2
02:49 15 °C 14.7 °C 1021.2 hPa West 1.6 km/h 6.4 km/h 95% 0 mm 0 W/m2
02:54 15 °C 14.7 °C 1021.2 hPa West 1.9 km/h 4.8 km/h 95% 0 mm 0 W/m2
02:59 15.1 °C 14.8 °C 1021.2 hPa West 4.2 km/h 6.4 km/h 95% 0 mm 0 W/m2
03:04 15 °C 14.7 °C 1021.2 hPa West 5 km/h 8 km/h 95% 0 mm 0 W/m2
03:08 15 °C 14.7 °C 1020.9 hPa West 2.7 km/h 6.4 km/h 95% 0 mm 0 W/m2
03:14 14.9 °C 14.7 °C 1020.9 hPa West 3.9 km/h 8 km/h 95% 0 mm 0 W/m2
03:19 15 °C 14.7 °C 1021.2 hPa West 4.3 km/h 8 km/h 95% 0 mm 0 W/m2
03:24 15 °C 14.7 °C 1021.2 hPa WNW 5.5 km/h 8 km/h 95% 0 mm 0 W/m2
03:29 15.1 °C 14.7 °C 1021.2 hPa WNW 5.8 km/h 9.7 km/h 95% 0 mm 0 W/m2
03:34 15.1 °C 14.8 °C 1021.2 hPa WNW 3.1 km/h 9.7 km/h 95% 0 mm 0 W/m2
03:39 15.1 °C 14.8 °C 1021.2 hPa WNW 2.6 km/h 6.4 km/h 95% 0 mm 0 W/m2
03:44 15.1 °C 14.8 °C 1021.2 hPa WNW 2.7 km/h 6.4 km/h 95% 0 mm 0 W/m2
03:49 15.1 °C 14.8 °C 1021.2 hPa WNW 2.6 km/h 8 km/h 95% 0 mm 0 W/m2
03:54 15.1 °C 14.8 °C 1021.2 hPa WNW 1.8 km/h 6.4 km/h 95% 0 mm 0 W/m2
03:59 15.1 °C 14.7 °C 1021.2 hPa WNW 2.7 km/h 9.7 km/h 95% 0 mm 0 W/m2
04:04 15 °C 14.7 °C 1021.2 hPa WNW 2.7 km/h 6.4 km/h 95% 0 mm 0 W/m2
04:09 15 °C 14.7 °C 1021.2 hPa WNW 2.3 km/h 6.4 km/h 95% 0 mm 0 W/m2
04:14 15 °C 14.9 °C 1021.2 hPa WNW 2.6 km/h 4.8 km/h 96% 0 mm 0 W/m2
04:19 15 °C 14.8 °C 1021.6 hPa WNW 3.5 km/h 8 km/h 95.8% 0 mm 0 W/m2
04:24 14.9 °C 14.8 °C 1021.6 hPa WNW 6.4 km/h 9.7 km/h 96% 0 mm 0 W/m2
04:29 14.9 °C 14.8 °C 1021.6 hPa WNW 6.4 km/h 8 km/h 96% 0 mm 0 W/m2
04:34 14.9 °C 14.8 °C 1021.2 hPa WNW 4.8 km/h 9.7 km/h 96% 0 mm 0 W/m2
04:39 14.9 °C 14.8 °C 1021.2 hPa West 2.7 km/h 6.4 km/h 96% 0 mm 0 W/m2
04:44 15 °C 14.9 °C 1021.2 hPa West 1.4 km/h 6.4 km/h 96% 0 mm 0 W/m2
04:49 15 °C 14.9 °C 1021.2 hPa West 1.3 km/h 3.2 km/h 96% 0 mm 0 W/m2
04:54 15 °C 14.9 °C 1021.2 hPa Calm     96% 0 mm 0 W/m2
04:59 15 °C 14.9 °C 1021.2 hPa Calm     96% 0 mm 0 W/m2
05:04 15 °C 14.9 °C 1021.2 hPa Calm     96% 0 mm 0 W/m2
05:09 15 °C 14.9 °C 1021.2 hPa Calm   1.6 km/h 96% 0 mm 0 W/m2
05:14 15 °C 14.9 °C 1021.2 hPa West 3.5 km/h 6.4 km/h 96% 0 mm 0 W/m2
05:19 14.9 °C 14.8 °C 1021.2 hPa West 1.3 km/h 8 km/h 96% 0 mm 0 W/m2
05:24 14.9 °C 14.8 °C 1021.2 hPa West 3.7 km/h 4.8 km/h 96% 0 mm 0 W/m2
05:29 14.8 °C 14.7 °C 1021.2 hPa West 0.3 km/h 4.8 km/h 96% 0 mm 0 W/m2
05:34 14.8 °C 14.7 °C 1021.6 hPa West 4.2 km/h 8 km/h 96% 0 mm 0 W/m2
05:39 14.7 °C 14.6 °C 1021.6 hPa WNW 2.6 km/h 8 km/h 96% 0 mm 0 W/m2
05:44 14.6 °C 14.6 °C 1021.6 hPa WNW 4 km/h 8 km/h 96% 0 mm 0 W/m2
05:49 14.6 °C 14.5 °C 1021.6 hPa WNW 1.8 km/h 6.4 km/h 96% 0 mm 0 W/m2
05:54 14.5 °C 14.4 °C 1021.6 hPa WNW 3.2 km/h 4.8 km/h 96% 0 mm 0 W/m2
05:59 14.4 °C 14.3 °C 1021.6 hPa WNW 2.1 km/h 4.8 km/h 96% 0 mm 0 W/m2
06:04 14.4 °C 14.3 °C 1021.6 hPa West 4 km/h 6.4 km/h 96% 0 mm 0 W/m2
06:09 14.4 °C 14.3 °C 1021.6 hPa West 3.9 km/h 6.4 km/h 96% 0 mm 0 W/m2
06:14 14.3 °C 14.3 °C 1021.6 hPa West 3.4 km/h 6.4 km/h 96% 0 mm 0 W/m2
06:19 14.3 °C 14.2 °C 1021.6 hPa West 1.9 km/h 4.8 km/h 96% 0 mm 0 W/m2
06:24 14.3 °C 14.2 °C 1021.6 hPa West 1.9 km/h 4.8 km/h 96% 0 mm 0 W/m2
06:29 14.3 °C 14.2 °C 1021.6 hPa West 3.9 km/h 6.4 km/h 96% 0 mm 0 W/m2
06:34 14.2 °C 14.1 °C 1021.6 hPa West 3.4 km/h 6.4 km/h 96% 0 mm 0 W/m2
06:39 14.2 °C 14.1 °C 1021.6 hPa West 2.7 km/h 8 km/h 96% 0 mm 0 W/m2
06:44 14.2 °C 14.1 °C 1021.9 hPa West 3.2 km/h 8 km/h 96% 0 mm 0 W/m2
06:49 14.2 °C 14.1 °C 1021.9 hPa West 3.9 km/h 6.4 km/h 96% 0 mm 0 W/m2
06:54 14.2 °C 14.1 °C 1021.9 hPa WNW 1.6 km/h 6.4 km/h 96% 0 mm 0 W/m2
06:59 14.2 °C 14.1 °C 1021.9 hPa West 2.6 km/h 6.4 km/h 96% 0 mm 5 W/m2
07:04 14.2 °C 14.1 °C 1021.9 hPa West 1.6 km/h 4.8 km/h 96% 0 mm 5 W/m2
07:09 14.3 °C 14.2 °C 1021.9 hPa West 2.9 km/h 6.4 km/h 96% 0 mm 9 W/m2
07:14 14.3 °C 14.2 °C 1021.9 hPa West 1.6 km/h 4.8 km/h 96% 0 mm 11 W/m2
07:19 14.3 °C 14.2 °C 1022.2 hPa West 2.4 km/h 6.4 km/h 96% 0 mm 12 W/m2
07:24 14.3 °C 14.2 °C 1022.2 hPa West 0.8 km/h 4.8 km/h 96% 0 mm 16 W/m2
07:29 14.3 °C 14.2 °C 1022.2 hPa West 1.9 km/h 4.8 km/h 96% 0 mm 16 W/m2
07:34 14.3 °C 14.2 °C 1022.2 hPa West 0.6 km/h 4.8 km/h 96% 0 mm 19 W/m2
07:39 14.3 °C 14.2 °C 1022.2 hPa WSW 4.2 km/h 8 km/h 96% 0 mm 23 W/m2
07:44 14.3 °C 14.2 °C 1022.6 hPa WSW 1.9 km/h 6.4 km/h 96% 0 mm 25 W/m2
07:49 14.3 °C 14.2 °C 1022.6 hPa WSW 1.6 km/h 4.8 km/h 96% 0 mm 37 W/m2
07:54 14.4 °C 14.3 °C 1022.6 hPa WSW 0.6 km/h 4.8 km/h 96% 0 mm 35 W/m2
07:59 14.4 °C 14.3 °C 1022.6 hPa WSW 1.9 km/h 4.8 km/h 96% 0 mm 42 W/m2
08:04 14.4 °C 14.3 °C 1022.6 hPa WSW 0.3 km/h 3.2 km/h 96% 0 mm 47 W/m2
08:09 14.4 °C 14.3 °C 1022.6 hPa WSW 1 km/h 3.2 km/h 96% 0 mm 56 W/m2
08:14 14.3 °C 14.3 °C 1022.6 hPa WSW 1.4 km/h 6.4 km/h 96% 0 mm 72 W/m2
08:19 14.3 °C 14.3 °C 1022.6 hPa West 2.6 km/h 8 km/h 96% 0 mm 74 W/m2
08:24 14.3 °C 14.3 °C 1022.9 hPa West 1.6 km/h 6.4 km/h 96.4% 0 mm 97 W/m2
08:29 14.4 °C 14.3 °C 1022.9 hPa West 3.2 km/h 6.4 km/h 96% 0 mm 102 W/m2
08:34 14.5 °C 14.4 °C 1022.9 hPa West 3.2 km/h 8 km/h 96% 0 mm 109 W/m2
08:39 14.7 °C 14.7 °C 1022.9 hPa Calm   1.6 km/h 96.8% 0 mm 127 W/m2
08:44 14.8 °C 14.7 °C 1022.9 hPa WNW 0.6 km/h 4.8 km/h 96.2% 0 mm 141 W/m2
08:49 14.9 °C 14.9 °C 1022.9 hPa Calm     96.8% 0 mm 146 W/m2
08:54 15.1 °C 15.1 °C 1022.9 hPa Calm     96.8% 0 mm 155 W/m2
08:59 15.1 °C 15.1 °C 1023.2 hPa Calm     97% 0 mm 162 W/m2
09:04 15.3 °C 15.3 °C 1023.2 hPa WNW 0.3 km/h 1.6 km/h 96.8% 0 mm 181 W/m2
09:09 15.3 °C 15.3 °C 1023.2 hPa Calm   1.6 km/h 96.4% 0 mm 192 W/m2
09:14 15.4 °C 15.4 °C 1023.2 hPa Calm     96.6% 0 mm 200 W/m2
09:19 15.7 °C 15.6 °C 1023.2 hPa Calm     96% 0 mm 211 W/m2
09:24 15.7 °C 15.6 °C 1023.2 hPa WNW 0.6 km/h 4.8 km/h 96% 0 mm 229 W/m2
09:29 15.9 °C 15.8 °C 1023.2 hPa WNW 0.6 km/h 6.4 km/h 96% 0 mm 239 W/m2
09:34 16.2 °C 16.1 °C 1023.2 hPa WNW 1.1 km/h 6.4 km/h 96% 0 mm 253 W/m2
09:39 16.2 °C 15.9 °C 1023.2 hPa WSW 3.2 km/h 6.4 km/h 95.6% 0 mm 269 W/m2
09:44 16.3 °C 16.1 °C 1023.2 hPa WSW 3.2 km/h 6.4 km/h 95% 0 mm 283 W/m2
09:49 16.6 °C 16.2 °C 1023.2 hPa WSW 3.4 km/h 8 km/h 94.4% 0 mm 294 W/m2
09:54 16.9 °C 16.4 °C 1023.2 hPa West 0.6 km/h 8 km/h 93.2% 0 mm 304 W/m2
09:59 17.3 °C 16.3 °C 1023.2 hPa West 0.3 km/h 4.8 km/h 91.2% 0 mm 315 W/m2
10:04 17.6 °C 16.3 °C 1023.2 hPa West 1 km/h 6.4 km/h 89.2% 0 mm 329 W/m2
10:09 17.8 °C 16.3 °C 1023.2 hPa West 1.6 km/h 4.8 km/h 87.8% 0 mm 341 W/m2
10:14 18.1 °C 16.3 °C 1023.6 hPa West 2.1 km/h 4.8 km/h 86.4% 0 mm 366 W/m2
10:19 18.3 °C 16.2 °C 1023.6 hPa WSW 1.3 km/h 6.4 km/h 85.4% 0 mm 367 W/m2
10:24 18.6 °C 16.3 °C 1023.6 hPa WSW 0.6 km/h 3.2 km/h 84.4% 0 mm 374 W/m2
10:29 18.8 °C 16.4 °C 1023.6 hPa WSW 1 km/h 4.8 km/h 83.4% 0 mm 387 W/m2
10:34 19.3 °C 16.6 °C 1023.6 hPa WSW 1.3 km/h 3.2 km/h 81.8% 0 mm 397 W/m2
10:39 19.7 °C 16.7 °C 1023.6 hPa South 1 km/h 4.8 km/h 80.8% 0 mm 404 W/m2
10:44 20.2 °C 16.9 °C 1023.6 hPa South 0.3 km/h 1.6 km/h 78.6% 0 mm 417 W/m2
10:49 20.5 °C 16.7 °C 1023.6 hPa Calm     76.5% 0 mm 425 W/m2
10:54 21.2 °C 16.9 °C 1023.6 hPa ESE 3.2 km/h 9.7 km/h 74.4% 0 mm 436 W/m2
10:59 21.4 °C 16.7 °C 1023.6 hPa ENE 6.1 km/h 12.9 km/h 72.2% 0 mm 441 W/m2
11:04 21.8 °C 16.8 °C 1023.6 hPa ENE 6 km/h 12.9 km/h 71.4% 0 mm 455 W/m2
11:09 22.2 °C 16.8 °C 1023.6 hPa East 3.4 km/h 9.7 km/h 69.4% 0 mm 462 W/m2
11:14 22.3 °C 16.8 °C 1023.6 hPa East 2.9 km/h 9.7 km/h 68.6% 0 mm 469 W/m2
11:19 22.4 °C 16.7 °C 1023.6 hPa ENE 1 km/h 8 km/h 68.2% 0 mm 485 W/m2
11:24 22.9 °C 16.8 °C 1023.6 hPa ESE 5.1 km/h 8 km/h 66.5% 0 mm 487 W/m2
11:29 23.2 °C 17.1 °C 1023.6 hPa SE 5.1 km/h 9.7 km/h 66.4% 0 mm 497 W/m2
11:34 23.1 °C 17.5 °C 1023.6 hPa SE 3.2 km/h 12.9 km/h 68.8% 0 mm 503 W/m2
11:39 23.1 °C 17.6 °C 1023.6 hPa ESE 4.7 km/h 11.3 km/h 69.2% 0 mm 504 W/m2
11:44 22.9 °C 17.2 °C 1023.6 hPa ESE 8 km/h 17.7 km/h 68% 0 mm 512 W/m2
11:49 22.9 °C 17.3 °C 1023.6 hPa ESE 8.9 km/h 14.5 km/h 68.2% 0 mm 515 W/m2
11:54 22.8 °C 17.3 °C 1023.6 hPa SE 8.7 km/h 19.3 km/h 69% 0 mm 526 W/m2
11:59 23.3 °C 17.5 °C 1023.6 hPa East 8 km/h 19.3 km/h 68% 0 mm 533 W/m2
12:04 23.9 °C 17.9 °C 1023.6 hPa ESE 5.8 km/h 14.5 km/h 67% 0 mm 538 W/m2
12:09 24 °C 17.6 °C 1023.6 hPa East 3.9 km/h 14.5 km/h 65.4% 0 mm 538 W/m2
12:14 24.3 °C 17.8 °C 1023.6 hPa East 4.3 km/h 11.3 km/h 65% 0 mm 543 W/m2
12:19 24.9 °C 17.9 °C 1023.6 hPa East 4 km/h 12.9 km/h 63.4% 0 mm 547 W/m2
12:24 25 °C 17.9 °C 1023.6 hPa East 7.9 km/h 14.5 km/h 63% 0 mm 550 W/m2
12:29 24.6 °C 17.6 °C 1023.2 hPa ESE 14 km/h 17.7 km/h 63.4% 0 mm 554 W/m2
12:34 24.4 °C 17.9 °C 1023.2 hPa East 6.4 km/h 16.1 km/h 64.8% 0 mm 557 W/m2
12:39 24.9 °C 17.8 °C 1023.2 hPa East 6.1 km/h 17.7 km/h 63% 0 mm 561 W/m2
12:44 24.9 °C 17.7 °C 1023.2 hPa East 5.6 km/h 17.7 km/h 62.6% 0 mm 563 W/m2
12:49 25.2 °C 17.9 °C 1023.2 hPa East 9.2 km/h 20.9 km/h 62.3% 0 mm 566 W/m2
12:54 25.3 °C 17.7 °C 1023.2 hPa East 9 km/h 17.7 km/h 61.2% 0 mm 566 W/m2
12:59 25.3 °C 17.7 °C 1023.2 hPa ENE 12.6 km/h 20.9 km/h 61% 0 mm 571 W/m2
13:04 25.2 °C 17.5 °C 1023.2 hPa ESE 4 km/h 20.9 km/h 60.4% 0 mm 575 W/m2
13:09 25.3 °C 17 °C 1023.2 hPa East 10 km/h 24.1 km/h 58.2% 0 mm 575 W/m2
13:14 25.5 °C 17 °C 1023.2 hPa ENE 10 km/h 17.7 km/h 57.6% 0 mm 575 W/m2
13:18 25.6 °C 17 °C 1023.2 hPa NE 6 km/h 14.5 km/h 57.5% 0 mm 577 W/m2
13:24 26.1 °C 17.3 °C 1023.2 hPa East 6.6 km/h 11.3 km/h 56.6% 0 mm 577 W/m2
13:29 26.3 °C 17.2 °C 1023.2 hPa East 7.7 km/h 22.5 km/h 55.6% 0 mm 571 W/m2
13:34 26.2 °C 17.1 °C 1023.2 hPa ENE 10 km/h 16.1 km/h 55.4% 0 mm 573 W/m2
13:39 26.2 °C 17.2 °C 1023.2 hPa ESE 5 km/h 19.3 km/h 56% 0 mm 575 W/m2
13:44 26.4 °C 17.3 °C 1023.2 hPa ENE 8 km/h 22.5 km/h 55.8% 0 mm 571 W/m2
13:49 26.3 °C 17.2 °C 1023.2 hPa East 6.1 km/h 22.5 km/h 55.8% 0 mm 573 W/m2
13:54 26.5 °C 17.1 °C 1023.2 hPa SE 5.1 km/h 11.3 km/h 54.6% 0 mm 571 W/m2
13:59 26.7 °C 17.4 °C 1023.2 hPa ESE 6.3 km/h 17.7 km/h 55.2% 0 mm 571 W/m2
14:04 27 °C 17.6 °C 1023.2 hPa East 7.2 km/h 20.9 km/h 54.6% 0 mm 566 W/m2
14:09 27 °C 17.2 °C 1023.2 hPa ESE 10.1 km/h 20.9 km/h 53.4% 0 mm 563 W/m2
14:14 26.7 °C 17.1 °C 1023.2 hPa ESE 9.7 km/h 24.1 km/h 53.8% 0 mm 561 W/m2
14:19 26.8 °C 17.1 °C 1023.2 hPa East 9.2 km/h 17.7 km/h 53.8% 0 mm 557 W/m2
14:24 26.8 °C 17.2 °C 1023.2 hPa ESE 8.4 km/h 17.7 km/h 53.8% 0 mm 555 W/m2
14:29 27.3 °C 17.5 °C 1023.2 hPa ENE 4 km/h 16.1 km/h 53.8% 0 mm 541 W/m2
14:34 26.9 °C 17.2 °C 1023.2 hPa ENE 9 km/h 16.1 km/h 53.6% 0 mm 534 W/m2
14:39 26.7 °C 17.2 °C 1023.2 hPa East 7.2 km/h 24.1 km/h 54.2% 0 mm 533 W/m2
14:44 26.8 °C 17.5 °C 1023.2 hPa ESE 4.8 km/h 16.1 km/h 55% 0 mm 527 W/m2
14:49 27.4 °C 17.5 °C 1023.2 hPa ESE 2.7 km/h 11.3 km/h 53.2% 0 mm 524 W/m2
14:54 27.2 °C 17.6 °C 1023.2 hPa NE 9 km/h 16.1 km/h 54.2% 0 mm 512 W/m2
14:59 26.8 °C 17.5 °C 1023.2 hPa NE 8.9 km/h 22.5 km/h 55% 0 mm 506 W/m2
15:04 26.4 °C 17.3 °C 1023.2 hPa ENE 11.6 km/h 22.5 km/h 55.8% 0 mm 499 W/m2
15:08 26.4 °C 17.4 °C 1023.2 hPa NE 4.3 km/h 16.1 km/h 56% 0 mm 492 W/m2
15:14 26.9 °C 17.6 °C 1023.2 hPa ENE 2.7 km/h 8 km/h 55% 0 mm 478 W/m2
15:19 27.1 °C 17.6 °C 1023.2 hPa ESE 4 km/h 11.3 km/h 54.6% 0 mm 475 W/m2
15:24 26.9 °C 17.6 °C 1023.2 hPa ESE 8.7 km/h 17.7 km/h 55% 0 mm 471 W/m2
15:29 27.1 °C 17.6 °C 1023.2 hPa SE 5.3 km/h 14.5 km/h 54.4% 0 mm 469 W/m2
15:34 27.1 °C 17.5 °C 1023.2 hPa ESE 7.9 km/h 16.1 km/h 54% 0 mm 452 W/m2
15:39 27.2 °C 17.7 °C 1023.2 hPa ENE 6.9 km/h 12.9 km/h 54.4% 0 mm 445 W/m2
15:44 26.7 °C 17.5 °C 1023.2 hPa NE 9 km/h 14.5 km/h 55.4% 0 mm 429 W/m2
15:49 26.3 °C 17.6 °C 1023.2 hPa ENE 9.3 km/h 16.1 km/h 56.8% 0 mm 418 W/m2
15:54 26.6 °C 17.6 °C 1023.2 hPa NNE 7.7 km/h 14.5 km/h 56.3% 0 mm 408 W/m2
15:59 26.3 °C 17.4 °C 1023.2 hPa NE 7.6 km/h 24.1 km/h 56.2% 0 mm 404 W/m2
16:04 26.1 °C 17.4 °C 1023.2 hPa ENE 12.2 km/h 24.1 km/h 57% 0 mm 396 W/m2
16:09 26.2 °C 17.4 °C 1023.2 hPa NE 9.5 km/h 25.7 km/h 56.8% 0 mm 383 W/m2
16:14 25.9 °C 17.2 °C 1023.2 hPa NE 12.2 km/h 25.7 km/h 57% 0 mm 376 W/m2
16:19 25.8 °C 17.1 °C 1023.2 hPa NNE 7.2 km/h 20.9 km/h 57% 0 mm 362 W/m2
16:24 25.8 °C 17.1 °C 1023.2 hPa ENE 11.9 km/h 20.9 km/h 57% 0 mm 343 W/m2
16:29 25.7 °C 17.2 °C 1023.6 hPa NNE 8.4 km/h 17.7 km/h 57.8% 0 mm 339 W/m2
16:34 25.7 °C 17.3 °C 1023.6 hPa ENE 11.6 km/h 20.9 km/h 58% 0 mm 336 W/m2
16:39 25.7 °C 17.3 °C 1023.6 hPa ENE 10.3 km/h 22.5 km/h 58% 0 mm 316 W/m2
16:44 25.8 °C 17.4 °C 1023.2 hPa ENE 6.6 km/h 17.7 km/h 58% 0 mm 309 W/m2
16:49 25.8 °C 17.3 °C 1023.2 hPa ENE 6.8 km/h 24.1 km/h 57.6% 0 mm 301 W/m2
16:54 25.8 °C 17.4 °C 1023.2 hPa ENE 9.2 km/h 22.5 km/h 58% 0 mm 281 W/m2
16:59 25.8 °C 17.5 °C 1023.2 hPa NE 12.1 km/h 22.5 km/h 58.2% 0 mm 267 W/m2
17:04 25.8 °C 17.6 °C 1023.2 hPa ENE 6.4 km/h 17.7 km/h 59% 0 mm 258 W/m2
17:09 25.8 °C 17.7 °C 1023.6 hPa NE 7.9 km/h 19.3 km/h 59% 0 mm 244 W/m2
17:14 25.6 °C 17.7 °C 1023.6 hPa NE 6.9 km/h 16.1 km/h 59.8% 0 mm 230 W/m2
17:19 25.6 °C 17.8 °C 1023.6 hPa East 6.8 km/h 12.9 km/h 60.3% 0 mm 220 W/m2
17:24 25.6 °C 17.9 °C 1023.6 hPa NE 8.7 km/h 20.9 km/h 61% 0 mm 209 W/m2
17:29 25.6 °C 18.1 °C 1023.6 hPa ENE 10.1 km/h 16.1 km/h 61.6% 0 mm 195 W/m2
17:34 25.4 °C 18.2 °C 1023.6 hPa ENE 8.7 km/h 17.7 km/h 62% 0 mm 186 W/m2
17:39 25.2 °C 18 °C 1023.6 hPa ENE 11.6 km/h 20.9 km/h 62.6% 0 mm 171 W/m2
17:44 24.8 °C 17.9 °C 1023.6 hPa NNE 7.6 km/h 20.9 km/h 63.8% 0 mm 156 W/m2
17:49 24.6 °C 17.9 °C 1023.6 hPa ENE 10.1 km/h 22.5 km/h 64.2% 0 mm 146 W/m2
17:54 24.6 °C 17.8 °C 1023.9 hPa ENE 9 km/h 14.5 km/h 64.2% 0 mm 135 W/m2
17:59 24.6 °C 17.8 °C 1023.9 hPa ENE 6.4 km/h 16.1 km/h 64% 0 mm 123 W/m2
18:04 24.6 °C 17.8 °C 1023.9 hPa East 7.6 km/h 16.1 km/h 64% 0 mm 111 W/m2
18:09 24.5 °C 17.9 °C 1023.9 hPa ENE 4.5 km/h 12.9 km/h 64.8% 0 mm 98 W/m2
18:14 24.4 °C 17.9 °C 1023.9 hPa NE 7.4 km/h 24.1 km/h 65% 0 mm 90 W/m2
18:19 24.2 °C 17.7 °C 1023.9 hPa NE 5.5 km/h 22.5 km/h 64.8% 0 mm 77 W/m2
18:24 23.9 °C 17.5 °C 1023.9 hPa NE 9.5 km/h 20.9 km/h 65.2% 0 mm 63 W/m2
18:29 23.7 °C 17.5 °C 1023.9 hPa ENE 9.3 km/h 16.1 km/h 66.4% 0 mm 53 W/m2
18:34 23.4 °C 17.4 °C 1024.3 hPa NE 5.6 km/h 20.9 km/h 67% 0 mm 40 W/m2
18:39 23.2 °C 17.2 °C 1024.3 hPa East 8.2 km/h 16.1 km/h 67% 0 mm 40 W/m2
18:44 23.1 °C 17.2 °C 1024.3 hPa ENE 8.4 km/h 16.1 km/h 67.4% 0 mm 28 W/m2
18:49 22.9 °C 17.3 °C 1024.3 hPa ENE 8 km/h 20.9 km/h 68.5% 0 mm 26 W/m2
18:54 22.7 °C 17.2 °C 1024.3 hPa ENE 9.3 km/h 22.5 km/h 69% 0 mm 23 W/m2
18:59 22.4 °C 17.2 °C 1024.3 hPa ENE 6.4 km/h 22.5 km/h 70% 0 mm 19 W/m2
19:04 22.3 °C 16.9 °C 1024.3 hPa ENE 7.6 km/h 17.7 km/h 70% 0 mm 16 W/m2
19:09 22.2 °C 16.8 °C 1024.6 hPa East 3.2 km/h 29 km/h 70% 0 mm 14 W/m2
19:14 21.9 °C 16.8 °C 1024.6 hPa ENE 8.2 km/h 17.7 km/h 70.6% 0 mm 11 W/m2
19:19 21.8 °C 16.8 °C 1024.6 hPa ENE 8 km/h 20.9 km/h 71% 0 mm 7 W/m2
19:24 21.6 °C 16.7 °C 1024.9 hPa ENE 8.9 km/h 14.5 km/h 71% 0 mm 0 W/m2
19:29 21.4 °C 16.5 °C 1024.9 hPa NE 11.3 km/h 27.4 km/h 71.4% 0 mm 0 W/m2
19:34 21.3 °C 16.5 °C 1024.9 hPa East 6.4 km/h 17.7 km/h 72% 0 mm 0 W/m2
19:39 21.2 °C 16.3 °C 1024.9 hPa ENE 6.6 km/h 22.5 km/h 72% 0 mm 0 W/m2
19:44 21 °C 16.2 °C 1024.9 hPa ENE 7.1 km/h 22.5 km/h 72% 0 mm 0 W/m2
19:49 20.8 °C 16.1 °C 1024.9 hPa East 9.3 km/h 24.1 km/h 72% 0 mm 0 W/m2
19:54 20.7 °C 16.2 °C 1025.3 hPa East 7.9 km/h 25.7 km/h 73% 0 mm 0 W/m2
19:59 20.5 °C 16 °C 1025.3 hPa ENE 7.7 km/h 25.7 km/h 73% 0 mm 0 W/m2
20:04 20.3 °C 15.8 °C 1025.3 hPa ENE 8.5 km/h 22.5 km/h 73% 0 mm 0 W/m2
20:09 20.3 °C 15.8 °C 1025.6 hPa ESE 4.7 km/h 14.5 km/h 73% 0 mm 0 W/m2
20:14 20.2 °C 15.8 °C 1025.6 hPa ENE 6.9 km/h 19.3 km/h 73.8% 0 mm 0 W/m2
20:19 19.9 °C 15.6 °C 1025.6 hPa ENE 11.9 km/h 25.7 km/h 74% 0 mm 0 W/m2
20:24 19.6 °C 15.3 °C 1026 hPa East 10.9 km/h 29 km/h 74% 0 mm 0 W/m2
20:29 19.3 °C 15.1 °C 1026 hPa NE 11.3 km/h 33.8 km/h 74% 0 mm 0 W/m2
20:34 19.1 °C 14.8 °C 1026 hPa ENE 13.2 km/h 27.4 km/h 74.3% 0 mm 0 W/m2
20:39 18.9 °C 14.8 °C 1026 hPa East 11.6 km/h 25.7 km/h 75% 0 mm 0 W/m2
20:44 18.7 °C 14.7 °C 1026.3 hPa East 8 km/h 24.1 km/h 75% 0 mm 0 W/m2
20:49 18.6 °C 14.6 °C 1026.3 hPa ENE 5.8 km/h 19.3 km/h 75% 0 mm 0 W/m2
20:54 18.4 °C 14.4 °C 1026.3 hPa East 10.3 km/h 35.4 km/h 75% 0 mm 0 W/m2
20:59 18.2 °C 14.4 °C 1026.3 hPa ENE 8.2 km/h 35.4 km/h 76% 0 mm 0 W/m2
21:04 18.1 °C 14.3 °C 1026.6 hPa ENE 8 km/h 20.9 km/h 76% 0 mm 0 W/m2
21:09 17.8 °C 14.3 °C 1026.6 hPa East 9.3 km/h 20.9 km/h 77.2% 0 mm 0 W/m2
21:14 17.7 °C 14.3 °C 1026.6 hPa East 6 km/h 17.7 km/h 78% 0 mm 0 W/m2
21:19 17.5 °C 14.2 °C 1026.6 hPa NE 8 km/h 16.1 km/h 78.6% 0 mm 0 W/m2
21:24 17.3 °C 14.2 °C 1026.6 hPa ENE 7.7 km/h 22.5 km/h 79% 0 mm 0 W/m2
21:29 17.3 °C 14.2 °C 1026.6 hPa ENE 10.9 km/h 25.7 km/h 79.6% 0 mm 0 W/m2
21:34 17.2 °C 14.2 °C 1027 hPa East 12.2 km/h 22.5 km/h 80% 0 mm 0 W/m2
21:39 17.2 °C 14.3 °C 1027 hPa ENE 9.7 km/h 22.5 km/h 80.6% 0 mm 0 W/m2
21:44 17.1 °C 14.3 °C 1027 hPa East 7.9 km/h 25.7 km/h 81% 0 mm 0 W/m2
21:49 17.1 °C 14.3 °C 1027 hPa East 11.3 km/h 20.9 km/h 81% 0 mm 0 W/m2
21:54 17 °C 14.2 °C 1027 hPa East 13.7 km/h 22.5 km/h 81% 0 mm 0 W/m2
21:59 16.9 °C 14.2 °C 1027.3 hPa East 9.3 km/h 33.8 km/h 81.2% 0 mm 0 W/m2
22:04 16.8 °C 14.2 °C 1027.3 hPa NE 10.9 km/h 20.9 km/h 82% 0 mm 0 W/m2
22:09 16.7 °C 14.1 °C 1027.3 hPa ENE 7.2 km/h 17.7 km/h 82% 0 mm 0 W/m2
22:14 16.7 °C 14.1 °C 1027.7 hPa ENE 10.6 km/h 24.1 km/h 82% 0 mm 0 W/m2
22:19 16.6 °C 14 °C 1027.7 hPa ENE 11.3 km/h 27.4 km/h 82% 0 mm 0 W/m2
22:24 16.4 °C 13.8 °C 1027.7 hPa East 10.5 km/h 22.5 km/h 82% 0 mm 0 W/m2
22:29 16.4 °C 13.9 °C 1027.7 hPa ENE 9.5 km/h 24.1 km/h 82.6% 0 mm 0 W/m2
22:34 16.3 °C 13.9 °C 1028 hPa NE 10.3 km/h 25.7 km/h 83% 0 mm 0 W/m2
22:39 16.3 °C 13.9 °C 1028 hPa East 5.8 km/h 12.9 km/h 83% 0 mm 0 W/m2
22:44 16.3 °C 13.9 °C 1028 hPa East 4 km/h 11.3 km/h 83% 0 mm 0 W/m2
22:49 16.2 °C 13.8 °C 1028 hPa East 6.4 km/h 16.1 km/h 83% 0 mm 0 W/m2
22:54 16.2 °C 13.8 °C 1028 hPa East 7.2 km/h 14.5 km/h 83% 0 mm 0 W/m2
22:59 16.2 °C 13.8 °C 1028 hPa ESE 1.9 km/h 14.5 km/h 83% 0 mm 0 W/m2
23:04 16.2 °C 13.8 °C 1028 hPa ENE 1 km/h 6.4 km/h 83% 0 mm 0 W/m2
23:09 16.2 °C 13.8 °C 1028 hPa East 5.1 km/h 16.1 km/h 83% 0 mm 0 W/m2
23:14 16.2 °C 13.9 °C 1028 hPa ENE 10.3 km/h 17.7 km/h 83.4% 0 mm 0 W/m2
23:19 16.1 °C 13.9 °C 1028 hPa ENE 10.3 km/h 17.7 km/h 84% 0 mm 0 W/m2
23:24 16.1 °C 13.9 °C 1028.3 hPa ENE 5 km/h 14.5 km/h 84% 0 mm 0 W/m2
23:29 16.1 °C 13.9 °C 1028.3 hPa NE 3.1 km/h 14.5 km/h 84% 0 mm 0 W/m2
23:34 16.1 °C 13.9 °C 1028.3 hPa ENE 8.7 km/h 19.3 km/h 84% 0 mm 0 W/m2
23:39 16.1 °C 13.9 °C 1028.3 hPa East 3.2 km/h 14.5 km/h 84% 0 mm 0 W/m2
23:44 16.1 °C 13.8 °C 1028.3 hPa ENE 8.9 km/h 19.3 km/h 84% 0 mm 0 W/m2
23:49 16 °C 13.8 °C 1028.3 hPa ENE 8.4 km/h 16.1 km/h 84% 0 mm 0 W/m2
23:54 15.9 °C 13.7 °C 1028.3 hPa East 5.6 km/h 20.9 km/h 84% 0 mm 0 W/m2
23:59 15.9 °C 13.7 °C 1028.3 hPa SE 5 km/h 20.9 km/h 84% 0 mm 0 W/m2
Bath Spa Weather
Compliments of Weather Underground - 2 mb